Time;durP1;ratioP1;P1;durP2;ratioP2;P2;SDS_P1;SDS_P2;PMS_P1;PMS_P2;Temp;Humidity;BMP_temperature;BMP_pressure;BME280_temperature;BME280_humidity;BME280_pressure;Samples;Min_cycle;Max_cycle;Signal;HPM_P1;HPM_P2
2021/08/19 00:02:14;;;;;;;11.30;9.13;;;16.30;99.90;;;;;;6059104;23;20530;-96
2021/08/19 00:04:43;;;;;;;12.07;8.68;;;16.30;99.90;;;;;;6106547;23;20073;-96
2021/08/19 00:07:09;;;;;;;15.47;9.40;;;16.30;99.90;;;;;;6107851;23;20018;-95
2021/08/19 00:09:37;;;;;;;10.80;8.65;;;16.30;99.90;;;;;;6131491;23;20559;-96
2021/08/19 00:12:08;;;;;;;10.85;8.70;;;16.30;99.90;;;;;;6132405;23;20089;-95
2021/08/19 00:14:38;;;;;;;12.32;8.60;;;16.40;99.90;;;;;;6106802;23;20018;-96
2021/08/19 00:17:05;;;;;;;11.88;8.05;;;16.30;99.90;;;;;;6105961;23;20029;-95
2021/08/19 00:19:32;;;;;;;12.35;8.25;;;16.30;99.90;;;;;;6105772;23;20018;-96
2021/08/19 00:22:00;;;;;;;15.32;8.15;;;16.30;99.90;;;;;;6131272;23;20014;-95
2021/08/19 00:24:26;;;;;;;11.95;8.35;;;16.40;99.90;;;;;;6105298;23;20038;-96
2021/08/19 00:26:54;;;;;;;9.50;8.00;;;16.40;99.90;;;;;;6056631;23;20024;-96
2021/08/19 00:29:39;;;;;;;11.68;8.05;;;16.40;99.90;;;;;;6107561;23;20489;-96
2021/08/19 00:32:06;;;;;;;12.57;8.70;;;16.30;99.90;;;;;;6103851;23;20030;-96
2021/08/19 00:34:32;;;;;;;13.18;7.88;;;16.30;99.90;;;;;;6054662;23;20097;-96
2021/08/19 00:37:21;;;;;;;9.43;7.80;;;16.30;99.90;;;;;;6032809;23;20069;-96
2021/08/19 00:39:50;;;;;;;10.98;6.22;;;16.40;99.90;;;;;;6032191;23;20022;-96
2021/08/19 00:42:20;;;;;;;10.52;7.75;;;16.30;99.90;;;;;;6055778;23;20045;-96
2021/08/19 00:45:07;;;;;;;8.55;7.22;;;16.30;99.90;;;;;;6054597;23;20053;-96
2021/08/19 00:47:34;;;;;;;9.70;7.63;;;16.30;99.90;;;;;;6054847;23;20022;-96
2021/08/19 00:50:01;;;;;;;10.82;7.88;;;16.30;99.90;;;;;;6031775;23;20042;-96
2021/08/19 00:52:51;;;;;;;9.57;7.30;;;16.30;99.90;;;;;;6079496;23;20029;-95
2021/08/19 00:55:17;;;;;;;10.70;7.55;;;16.30;99.90;;;;;;6032126;23;20225;-96
2021/08/19 00:57:47;;;;;;;10.07;7.72;;;16.30;99.90;;;;;;6078895;23;20018;-95
2021/08/19 01:00:14;;;;;;;10.05;6.80;;;16.30;99.90;;;;;;6054968;23;20089;-96
2021/08/19 01:02:46;;;;;;;11.60;7.30;;;16.30;99.90;;;;;;6054815;23;20382;-96
2021/08/19 01:05:18;;;;;;;10.60;8.00;;;16.30;99.90;;;;;;6055214;23;20336;-96
2021/08/19 01:07:47;;;;;;;9.20;7.65;;;16.30;99.90;;;;;;6078417;23;20021;-96
2021/08/19 01:10:16;;;;;;;10.10;6.78;;;16.30;99.90;;;;;;6056525;23;20030;-96
2021/08/19 01:12:46;;;;;;;10.68;7.40;;;16.30;99.90;;;;;;6080891;23;20015;-96
2021/08/19 01:15:15;;;;;;;10.50;6.97;;;16.30;99.90;;;;;;6079575;23;20018;-96
2021/08/19 01:17:41;;;;;;;9.88;7.20;;;16.20;99.90;;;;;;6056062;23;20026;-96
2021/08/19 01:20:08;;;;;;;11.35;7.45;;;16.20;99.90;;;;;;6057870;23;20030;-95
2021/08/19 01:22:34;;;;;;;8.35;6.78;;;16.20;99.90;;;;;;6085650;23;20018;-95
2021/08/19 01:25:01;;;;;;;10.48;7.03;;;16.20;99.90;;;;;;6054732;23;20404;-96
2021/08/19 01:27:29;;;;;;;10.07;6.88;;;16.20;99.90;;;;;;6078188;23;20597;-96
2021/08/19 01:29:55;;;;;;;10.27;6.82;;;16.20;99.90;;;;;;6081526;23;20021;-95
2021/08/19 01:32:22;;;;;;;9.40;7.13;;;16.20;99.90;;;;;;6134699;23;20486;-95
2021/08/19 01:34:53;;;;;;;9.48;7.30;;;16.30;99.90;;;;;;6107286;23;20018;-95
2021/08/19 01:37:20;;;;;;;9.80;7.57;;;16.20;99.90;;;;;;6105999;23;20045;-96
2021/08/19 01:39:46;;;;;;;10.07;7.35;;;16.20;99.90;;;;;;6108252;23;20069;-96
2021/08/19 01:42:13;;;;;;;9.40;7.18;;;16.20;99.90;;;;;;6106716;23;20017;-96
2021/08/19 01:44:40;;;;;;;10.07;7.35;;;16.20;99.90;;;;;;6057750;23;20041;-96
2021/08/19 01:47:09;;;;;;;10.10;7.38;;;16.20;99.90;;;;;;6082606;23;20084;-96
2021/08/19 01:49:35;;;;;;;10.93;7.13;;;16.20;99.90;;;;;;6084468;23;20018;-96
2021/08/19 01:52:06;;;;;;;10.00;7.15;;;16.20;99.90;;;;;;6106441;23;20056;-96
2021/08/19 01:54:32;;;;;;;11.50;6.78;;;16.20;99.90;;;;;;6083822;23;20014;-96
2021/08/19 01:56:59;;;;;;;10.48;6.20;;;16.20;99.90;;;;;;6082630;23;20018;-96
2021/08/19 01:59:27;;;;;;;9.13;7.28;;;16.20;99.90;;;;;;6130186;23;20061;-96
2021/08/19 02:02:00;;;;;;;10.57;6.97;;;16.10;99.90;;;;;;6105907;23;20014;-96
2021/08/19 02:04:26;;;;;;;9.10;7.70;;;16.20;99.90;;;;;;6105498;23;20077;-96
2021/08/19 02:06:53;;;;;;;11.10;8.05;;;16.20;99.90;;;;;;6131333;23;20084;-96
2021/08/19 02:09:22;;;;;;;9.80;7.60;;;16.20;99.90;;;;;;6132085;23;20016;-95
2021/08/19 02:11:56;;;;;;;11.13;8.55;;;16.20;99.90;;;;;;6131592;23;20014;-96
2021/08/19 02:14:23;;;;;;;9.27;7.10;;;16.20;99.90;;;;;;6106646;23;20018;-96
2021/08/19 02:16:49;;;;;;;12.82;8.90;;;16.20;99.90;;;;;;6083627;23;20045;-96
2021/08/19 02:19:15;;;;;;;12.90;7.90;;;16.20;99.90;;;;;;6107502;23;20029;-96
2021/08/19 02:21:44;;;;;;;9.52;7.93;;;16.20;99.90;;;;;;6084313;23;20014;-96
2021/08/19 02:24:11;;;;;;;11.90;8.73;;;16.10;99.90;;;;;;6106714;23;20045;-96
2021/08/19 02:27:02;;;;;;;10.00;8.85;;;16.20;99.90;;;;;;6108821;23;20065;-96
2021/08/19 02:29:28;;;;;;;11.20;8.02;;;16.20;99.90;;;;;;6083422;23;20040;-96
2021/08/19 02:31:54;;;;;;;13.15;8.30;;;16.20;99.90;;;;;;6085344;23;20022;-96
2021/08/19 02:34:24;;;;;;;11.45;9.20;;;16.20;99.90;;;;;;6106485;23;20451;-96
2021/08/19 02:36:51;;;;;;;13.55;9.55;;;16.20;99.90;;;;;;6140916;23;20073;-96
2021/08/19 02:39:18;;;;;;;13.32;9.45;;;16.20;99.90;;;;;;6104926;23;20025;-95
2021/08/19 02:41:44;;;;;;;14.50;10.35;;;16.20;99.90;;;;;;6107620;23;20021;-96
2021/08/19 02:44:11;;;;;;;14.88;9.90;;;16.20;99.90;;;;;;6106027;23;20040;-96
2021/08/19 02:46:40;;;;;;;12.60;10.07;;;16.10;99.90;;;;;;6083059;23;20018;-96
2021/08/19 02:49:07;;;;;;;14.50;11.63;;;16.10;99.90;;;;;;6131896;23;20388;-95
2021/08/19 02:51:35;;;;;;;14.18;11.23;;;16.20;99.90;;;;;;6081482;23;20018;-96
2021/08/19 02:54:21;;;;;;;14.20;12.70;;;16.10;99.90;;;;;;6130969;23;20017;-96
2021/08/19 02:56:48;;;;;;;18.92;13.82;;;16.10;99.90;;;;;;6131098;23;20421;-96
2021/08/19 02:59:51;;;;;;;15.80;12.65;;;16.10;99.90;;;;;;6106174;23;20014;-96
2021/08/19 03:02:17;;;;;;;15.38;13.15;;;16.10;99.90;;;;;;6105886;23;20488;-96
2021/08/19 03:04:43;;;;;;;19.40;16.30;;;16.10;99.90;;;;;;6105721;23;20018;-96
2021/08/19 03:07:19;;;;;;;18.20;15.38;;;16.10;99.90;;;;;;6105863;23;20022;-96
2021/08/19 03:09:46;;;;;;;20.23;17.10;;;16.10;99.90;;;;;;6082804;23;20026;-96
2021/08/19 03:12:21;;;;;;;17.33;15.52;;;16.00;99.90;;;;;;6129955;23;20529;-95
2021/08/19 03:14:55;;;;;;;18.27;15.82;;;16.10;99.90;;;;;;6106607;23;20065;-96
2021/08/19 03:17:21;;;;;;;18.35;16.10;;;16.00;99.90;;;;;;6105272;23;20018;-96
2021/08/19 03:19:47;;;;;;;18.77;16.88;;;16.00;99.90;;;;;;6108062;23;20203;-96
2021/08/19 03:22:16;;;;;;;20.23;18.00;;;16.10;99.90;;;;;;6106385;23;20024;-96
2021/08/19 03:24:56;;;;;;;19.73;17.73;;;16.10;99.90;;;;;;6082882;23;20046;-96
2021/08/19 03:27:22;;;;;;;20.83;18.63;;;16.00;99.90;;;;;;6105350;23;20014;-96
2021/08/19 03:29:49;;;;;;;23.63;18.52;;;16.00;99.90;;;;;;6105536;23;20030;-96
2021/08/19 03:32:17;;;;;;;22.70;18.75;;;16.00;99.90;;;;;;6106697;23;20025;-94
2021/08/19 03:34:45;;;;;;;22.30;19.65;;;16.10;99.90;;;;;;6106587;23;20013;-96
2021/08/19 03:37:11;;;;;;;22.50;19.90;;;16.00;99.90;;;;;;6106106;23;20018;-96
2021/08/19 03:39:37;;;;;;;23.67;21.23;;;16.00;99.90;;;;;;6105556;23;20076;-96
2021/08/19 03:42:24;;;;;;;25.80;23.00;;;16.00;99.90;;;;;;6084344;23;20029;-96
2021/08/19 03:44:54;;;;;;;26.20;21.90;;;16.00;99.90;;;;;;6082070;23;20024;-95
2021/08/19 03:47:22;;;;;;;28.63;25.55;;;16.00;99.90;;;;;;6132463;23;20478;-96
2021/08/19 03:49:48;;;;;;;27.33;24.48;;;16.00;99.90;;;;;;6107077;23;20371;-96
2021/08/19 03:52:14;;;;;;;28.60;24.95;;;16.00;99.90;;;;;;6132146;23;20014;-96
2021/08/19 03:54:41;;;;;;;27.63;24.75;;;16.00;99.90;;;;;;6130127;23;20026;-95
2021/08/19 03:57:10;;;;;;;28.38;24.50;;;16.00;99.90;;;;;;6106003;23;20022;-96
2021/08/19 03:59:38;;;;;;;27.23;24.25;;;16.00;99.90;;;;;;6132332;23;20018;-96
2021/08/19 04:02:04;;;;;;;28.10;24.27;;;16.00;99.90;;;;;;6104988;23;20084;-96
2021/08/19 04:04:31;;;;;;;24.73;22.23;;;16.10;99.90;;;;;;6081764;23;20018;-95
2021/08/19 04:06:57;;;;;;;30.02;26.35;;;16.10;99.90;;;;;;6129775;23;20032;-96
2021/08/19 04:09:24;;;;;;;27.98;24.83;;;16.00;99.90;;;;;;6106045;23;20025;-95
2021/08/19 04:11:51;;;;;;;27.08;24.20;;;16.00;99.90;;;;;;6107026;23;20022;-96
2021/08/19 04:14:17;;;;;;;29.35;26.27;;;16.00;99.90;;;;;;6130548;23;20061;-96
2021/08/19 04:16:45;;;;;;;26.23;23.23;;;15.90;99.90;;;;;;6107196;23;20014;-96
2021/08/19 04:19:31;;;;;;;31.73;25.88;;;16.00;99.90;;;;;;6107324;23;20097;-96
2021/08/19 04:21:57;;;;;;;25.63;22.27;;;16.00;99.90;;;;;;6106559;23;20332;-96
2021/08/19 04:24:23;;;;;;;28.80;24.10;;;16.00;99.90;;;;;;6106762;23;20018;-96
2021/08/19 04:26:50;;;;;;;25.20;22.38;;;16.00;99.90;;;;;;6107034;23;20025;-96
2021/08/19 04:29:23;;;;;;;28.05;24.48;;;16.00;99.90;;;;;;6107688;23;20026;-96
2021/08/19 04:31:50;;;;;;;28.83;24.35;;;16.10;99.90;;;;;;6060669;23;20022;-96
2021/08/19 04:34:17;;;;;;;31.42;25.05;;;16.10;99.90;;;;;;6108319;23;20029;-96
2021/08/19 04:36:58;;;;;;;25.60;23.02;;;16.10;99.90;;;;;;6143464;23;20013;-96
2021/08/19 04:39:27;;;;;;;29.90;25.98;;;16.10;99.90;;;;;;6134834;23;20010;-96
2021/08/19 04:42:17;;;;;;;29.50;26.05;;;16.10;99.90;;;;;;6135441;23;20085;-96
2021/08/19 04:45:03;;;;;;;28.15;23.73;;;16.10;99.90;;;;;;6107997;23;20398;-96
2021/08/19 04:47:30;;;;;;;26.88;23.95;;;16.10;99.90;;;;;;6085267;23;20018;-96
2021/08/19 04:49:57;;;;;;;25.48;22.77;;;16.20;99.90;;;;;;6084615;23;20517;-96
2021/08/19 04:52:23;;;;;;;31.38;27.40;;;16.20;99.90;;;;;;6109815;23;20331;-96
2021/08/19 04:55:11;;;;;;;27.77;24.77;;;16.20;99.90;;;;;;6112159;23;20018;-96
2021/08/19 04:57:38;;;;;;;33.60;27.92;;;16.20;99.90;;;;;;6136712;23;20085;-96
2021/08/19 05:00:09;;;;;;;30.55;26.80;;;16.20;99.90;;;;;;6111391;23;20030;-96
2021/08/19 05:02:45;;;;;;;30.52;27.23;;;16.20;99.90;;;;;;6137140;23;20010;-96
2021/08/19 05:05:11;;;;;;;30.15;26.33;;;16.20;99.90;;;;;;6135494;23;20014;-95
2021/08/19 05:07:38;;;;;;;28.55;25.52;;;16.30;99.90;;;;;;6086395;23;20025;-96
2021/08/19 05:10:05;;;;;;;31.15;26.95;;;16.30;99.90;;;;;;6111820;23;20022;-96
2021/08/19 05:12:34;;;;;;;30.88;27.52;;;16.30;99.90;;;;;;6139791;23;20014;-96
2021/08/19 05:15:20;;;;;;;28.27;25.23;;;16.30;99.90;;;;;;6135416;23;20037;-96
2021/08/19 05:17:51;;;;;;;;;;;16.30;99.90;;;;;;6133864;23;20010;-96
2021/08/19 05:20:21;;;;;;;26.65;23.50;;;16.40;99.90;;;;;;6144050;23;19936;-96
2021/08/19 05:22:48;;;;;;;32.63;26.08;;;16.40;99.90;;;;;;6134152;23;20466;-96
2021/08/19 05:25:14;;;;;;;30.20;25.33;;;16.40;99.90;;;;;;6085569;23;20022;-96
2021/08/19 05:27:43;;;;;;;30.23;26.73;;;16.40;99.90;;;;;;6111319;23;20018;-96
2021/08/19 05:30:09;;;;;;;29.65;24.83;;;16.40;99.90;;;;;;6087569;23;20101;-96
2021/08/19 05:32:37;;;;;;;32.15;25.98;;;16.40;99.90;;;;;;6137966;23;20075;-96
2021/08/19 05:35:06;;;;;;;27.20;24.13;;;16.40;99.90;;;;;;6137035;23;20018;-96
2021/08/19 05:37:35;;;;;;;29.45;24.20;;;16.40;99.90;;;;;;6140852;23;20017;-96
2021/08/19 05:40:01;;;;;;;30.35;26.45;;;16.50;99.90;;;;;;6112243;23;20045;-96
2021/08/19 05:42:32;;;;;;;31.33;24.85;;;16.50;99.90;;;;;;6089312;23;20018;-96
2021/08/19 05:45:01;;;;;;;30.23;26.08;;;16.50;99.90;;;;;;6112271;23;20028;-96
2021/08/19 05:47:27;;;;;;;26.33;23.50;;;16.50;99.90;;;;;;6125232;23;20017;-96
2021/08/19 05:49:53;;;;;;;28.52;24.08;;;16.50;99.90;;;;;;6113784;23;20021;-96
2021/08/19 05:52:40;;;;;;;27.45;23.60;;;16.50;99.90;;;;;;6138388;23;20141;-96
2021/08/19 05:55:07;;;;;;;29.98;24.52;;;16.60;99.90;;;;;;6144172;23;20096;-92
2021/08/19 05:57:40;;;;;;;28.52;23.83;;;16.60;99.90;;;;;;6093574;23;20024;-96
2021/08/19 06:00:29;;;;;;;29.42;25.00;;;16.60;99.90;;;;;;6120237;23;20053;-96
2021/08/19 06:02:56;;;;;;;28.42;24.80;;;16.60;99.90;;;;;;6122898;23;20014;-95
2021/08/19 06:05:25;;;;;;;27.73;24.73;;;16.50;99.90;;;;;;6119247;23;20025;-96
2021/08/19 06:07:52;;;;;;;32.45;26.40;;;16.60;99.90;;;;;;6096824;23;20018;-96
2021/08/19 06:10:19;;;;;;;27.65;24.15;;;16.60;99.90;;;;;;6073979;23;20053;-95
2021/08/19 06:12:46;;;;;;;36.22;26.35;;;16.60;99.90;;;;;;6127120;23;20022;-96
2021/08/19 06:15:13;;;;;;;30.98;25.25;;;16.60;99.90;;;;;;6100855;23;20038;-95
2021/08/19 06:17:45;;;;;;;32.97;26.30;;;16.60;99.90;;;;;;6118178;23;20044;-93
2021/08/19 06:20:15;;;;;;;29.15;24.85;;;16.60;99.90;;;;;;6094721;23;20025;-96
2021/08/19 06:22:45;;;;;;;27.70;24.00;;;16.60;99.90;;;;;;6118018;23;20085;-95
2021/08/19 06:25:16;;;;;;;32.40;24.73;;;16.60;99.90;;;;;;6084424;23;20018;-95
2021/08/19 06:27:42;;;;;;;33.63;26.73;;;16.50;99.90;;;;;;6060150;23;20085;-95
2021/08/19 06:30:11;;;;;;;34.67;26.88;;;16.60;99.90;;;;;;6039428;23;20098;-95
2021/08/19 06:32:41;;;;;;;35.20;26.77;;;16.50;99.90;;;;;;6084585;23;20051;-96
2021/08/19 06:35:09;;;;;;;34.50;26.15;;;16.60;99.90;;;;;;6110674;23;20015;-95
2021/08/19 06:37:39;;;;;;;34.00;25.80;;;16.60;99.90;;;;;;6060702;23;20444;-96
2021/08/19 06:40:07;;;;;;;36.55;27.67;;;16.60;99.90;;;;;;6096824;23;20042;-96
2021/08/19 06:42:34;;;;;;;32.03;26.52;;;16.60;99.90;;;;;;6117394;23;20022;-95
2021/08/19 06:45:01;;;;;;;37.63;28.15;;;16.60;99.90;;;;;;6093060;23;20038;-95
2021/08/19 06:47:30;;;;;;;31.35;26.83;;;16.60;99.90;;;;;;6045820;23;21420;-95
2021/08/19 06:49:56;;;;;;;33.22;26.67;;;16.60;99.90;;;;;;6033712;23;20029;-96
2021/08/19 06:52:22;;;;;;;31.50;24.85;;;16.70;99.90;;;;;;6104968;23;20014;-96
2021/08/19 06:54:49;;;;;;;31.58;23.50;;;16.70;99.90;;;;;;6056833;23;20034;-95
2021/08/19 06:57:18;;;;;;;30.85;24.63;;;16.70;99.90;;;;;;6085597;23;20022;-96
2021/08/19 06:59:44;;;;;;;24.33;21.48;;;16.70;99.90;;;;;;6030825;23;20070;-96
2021/08/19 07:02:10;;;;;;;25.65;22.02;;;16.70;99.90;;;;;;6079431;23;20455;-96
2021/08/19 07:04:36;;;;;;;26.05;21.17;;;16.70;99.90;;;;;;6035206;23;20026;-96
2021/08/19 07:07:03;;;;;;;25.42;21.30;;;16.80;99.90;;;;;;6054647;23;20022;-95
2021/08/19 07:09:33;;;;;;;26.50;21.52;;;16.80;99.90;;;;;;6079951;23;20018;-96
2021/08/19 07:11:59;;;;;;;25.15;20.83;;;16.80;99.90;;;;;;6078597;23;20557;-96
2021/08/19 07:14:25;;;;;;;25.90;20.60;;;16.70;99.90;;;;;;6054366;23;20089;-96
2021/08/19 07:17:10;;;;;;;26.45;20.90;;;16.80;99.90;;;;;;6101255;23;20105;-96
2021/08/19 07:19:36;;;;;;;25.33;20.50;;;16.80;99.90;;;;;;6078861;23;20022;-96
2021/08/19 07:22:04;;;;;;;25.13;19.27;;;16.80;99.90;;;;;;6081855;23;20022;-96
2021/08/19 07:24:30;;;;;;;24.00;18.35;;;16.80;99.90;;;;;;6056656;23;20026;-96
2021/08/19 07:26:58;;;;;;;22.20;16.92;;;16.90;99.90;;;;;;6107714;23;20030;-96
2021/08/19 07:29:37;;;;;;;22.58;17.40;;;16.80;99.90;;;;;;6086519;23;20459;-95
2021/08/19 07:32:04;;;;;;;24.20;18.60;;;16.90;99.90;;;;;;6088942;23;20017;-96
2021/08/19 07:35:12;;;;;;;21.50;16.45;;;16.80;99.90;;;;;;6086757;23;20019;-96
2021/08/19 07:38:11;;;;;;;26.40;19.52;;;16.90;99.90;;;;;;6092338;23;20050;-96
2021/08/19 07:48:31;;;;;;;17.95;15.65;;;17.00;99.90;;;;;;6089190;23;20043;-96
2021/08/19 07:51:19;;;;;;;18.75;15.43;;;17.00;99.90;;;;;;6020409;23;20011;-96
2021/08/19 07:54:32;;;;;;;20.73;14.85;;;17.00;99.90;;;;;;6029505;23;20035;-96
2021/08/19 07:57:04;;;;;;;19.85;14.68;;;17.10;99.90;;;;;;5980951;23;20024;-96
2021/08/19 08:00:08;;;;;;;18.05;15.23;;;17.10;99.90;;;;;;5975590;23;20049;-96
2021/08/19 08:02:34;;;;;;;16.73;14.65;;;17.10;99.90;;;;;;5978745;23;20024;-96
2021/08/19 08:05:09;;;;;;;15.23;13.23;;;17.10;99.90;;;;;;6000809;23;20099;-96
2021/08/19 08:07:40;;;;;;;22.52;15.38;;;17.10;99.90;;;;;;5954291;23;20024;-96
2021/08/19 08:10:07;;;;;;;17.45;14.25;;;17.00;99.90;;;;;;5970998;23;20089;-96
2021/08/19 08:16:20;;;;;;;21.92;15.02;;;17.00;99.90;;;;;;5996697;23;20023;-96
2021/08/19 08:18:51;;;;;;;24.35;16.90;;;17.10;99.90;;;;;;5996416;23;20027;-96
2021/08/19 08:21:43;;;;;;;36.17;18.38;;;17.10;99.90;;;;;;5928454;23;20029;-95
2021/08/19 08:24:12;;;;;;;25.23;17.83;;;17.10;99.90;;;;;;5963923;23;20042;-96
2021/08/19 08:26:43;;;;;;;29.08;18.00;;;17.20;99.90;;;;;;6028231;23;20122;-96
2021/08/19 08:29:28;;;;;;;25.67;18.17;;;17.30;99.90;;;;;;6008718;23;20026;-96
2021/08/19 08:32:01;;;;;;;31.30;19.45;;;17.20;99.90;;;;;;6047968;23;20022;-96
2021/08/19 08:34:27;;;;;;;42.78;20.40;;;17.20;99.90;;;;;;6061789;23;20022;-96
2021/08/19 08:36:54;;;;;;;26.90;17.25;;;17.20;99.90;;;;;;6082535;23;20014;-96
2021/08/19 08:39:20;;;;;;;29.65;18.35;;;17.20;99.90;;;;;;6081947;23;20015;-96
2021/08/19 08:41:50;;;;;;;28.25;18.58;;;17.20;99.90;;;;;;6081488;23;20025;-96
2021/08/19 08:44:21;;;;;;;23.58;16.40;;;17.20;99.90;;;;;;6080747;23;20029;-96
2021/08/19 08:46:49;;;;;;;25.80;18.13;;;17.30;99.90;;;;;;6083379;23;20089;-96
2021/08/19 08:49:15;;;;;;;30.85;19.33;;;17.30;99.90;;;;;;6082835;23;20022;-96
2021/08/19 08:52:03;;;;;;;23.25;16.55;;;17.50;99.90;;;;;;6058575;23;20109;-96
2021/08/19 08:54:51;;;;;;;27.70;18.92;;;17.50;99.90;;;;;;6090556;23;20096;-96
2021/08/19 08:57:18;;;;;;;27.20;18.98;;;17.60;99.90;;;;;;6089867;23;20022;-96
2021/08/19 09:03:26;;;;;;;23.85;18.25;;;17.60;99.90;;;;;;6116606;23;20033;-75
2021/08/19 09:05:52;;;;;;;27.35;19.83;;;17.70;99.90;;;;;;6120201;23;20013;-75
2021/08/19 09:08:25;;;;;;;32.00;19.77;;;17.70;99.90;;;;;;6096223;23;20347;-75
2021/08/19 09:10:56;;;;;;;35.83;20.98;;;17.60;99.90;;;;;;6093951;23;20328;-75
2021/08/19 09:13:24;;;;;;;32.08;21.48;;;17.60;99.90;;;;;;6068788;23;20022;-75
2021/08/19 09:15:51;;;;;;;29.27;20.27;;;17.60;99.90;;;;;;6089482;23;20032;-75
2021/08/19 09:18:38;;;;;;;44.35;23.35;;;17.60;99.90;;;;;;6042903;23;20068;-75
2021/08/19 09:21:22;;;;;;;29.17;21.38;;;17.60;99.90;;;;;;6097913;23;20025;-75
2021/08/19 09:24:10;;;;;;;36.03;24.30;;;17.60;99.90;;;;;;6093751;23;20050;-75
2021/08/19 09:26:37;;;;;;;45.45;25.00;;;17.60;99.90;;;;;;6121680;23;20026;-75
2021/08/19 09:29:27;;;;;;;35.53;22.30;;;17.60;99.90;;;;;;6113423;23;20417;-75
2021/08/19 09:32:07;;;;;;;32.97;21.67;;;17.70;99.90;;;;;;6117184;23;20424;-75
2021/08/19 09:34:34;;;;;;;;;;;17.70;99.90;;;;;;6092402;23;20025;-75
2021/08/19 09:37:02;;;;;;;33.53;22.58;;;17.70;99.90;;;;;;6067827;23;19917;-75
2021/08/19 09:39:39;;;;;;;31.33;21.70;;;17.70;99.90;;;;;;6117951;23;20014;-75
2021/08/19 09:42:07;;;;;;;36.53;23.27;;;17.80;99.90;;;;;;6123516;23;20521;-75
2021/08/19 09:44:40;;;;;;;36.90;23.40;;;17.70;99.90;;;;;;6072162;23;20026;-75
2021/08/19 09:47:26;;;;;;;40.67;24.73;;;17.80;99.90;;;;;;6093178;23;20022;-75
2021/08/19 09:50:15;;;;;;;37.38;22.13;;;17.80;99.90;;;;;;6091955;23;20061;-75
2021/08/19 09:52:46;;;;;;;36.28;22.73;;;17.80;99.90;;;;;;6070231;23;20034;-75
2021/08/19 09:55:32;;;;;;;34.35;23.15;;;17.70;99.90;;;;;;6119063;23;20018;-74
2021/08/19 09:57:59;;;;;;;33.08;22.10;;;17.80;99.90;;;;;;6092303;23;20022;-75
2021/08/19 10:00:41;;;;;;;31.75;22.00;;;17.80;99.90;;;;;;6095233;23;20010;-75
2021/08/19 10:03:13;;;;;;;38.08;24.13;;;18.00;99.90;;;;;;6105512;23;20025;-75
2021/08/19 10:05:40;;;;;;;30.60;22.83;;;18.10;99.90;;;;;;6117286;23;20375;-74
2021/08/19 10:08:08;;;;;;;30.42;19.58;;;18.30;99.90;;;;;;6119870;23;20026;-74
2021/08/19 10:10:36;;;;;;;31.60;21.60;;;18.30;99.90;;;;;;6092788;23;20037;-74
2021/08/19 10:13:03;;;;;;;27.55;19.25;;;18.30;99.90;;;;;;6118032;23;20246;-74
2021/08/19 10:15:35;;;;;;;26.40;18.90;;;18.30;99.90;;;;;;6118216;23;20324;-74
2021/08/19 10:18:01;;;;;;;27.63;18.17;;;18.20;99.90;;;;;;6119487;23;20014;-74
2021/08/19 10:20:45;;;;;;;30.52;20.00;;;18.10;99.90;;;;;;6115245;23;20018;-74
2021/08/19 10:23:15;;;;;;;26.27;18.90;;;18.10;99.90;;;;;;6120116;23;20065;-74
2021/08/19 10:25:42;;;;;;;29.42;18.45;;;17.90;99.90;;;;;;6067360;23;20017;-73
2021/08/19 10:28:17;;;;;;;26.00;19.23;;;17.90;99.90;;;;;;6117420;23;20346;-73
2021/08/19 10:30:49;;;;;;;28.35;18.65;;;17.80;99.90;;;;;;6119366;23;20029;-74
2021/08/19 10:33:37;;;;;;;25.73;18.83;;;17.80;99.90;;;;;;6114783;23;20359;-74
2021/08/19 10:36:13;;;;;;;23.80;18.40;;;17.80;99.90;;;;;;6117750;23;20481;-74
2021/08/19 10:38:40;;;;;;;29.85;19.75;;;17.80;99.90;;;;;;6115322;23;20022;-74
2021/08/19 10:41:31;;;;;;;22.27;17.65;;;17.80;99.90;;;;;;6116901;23;20069;-73
2021/08/19 10:44:07;;;;;;;25.58;17.98;;;17.80;99.90;;;;;;6115938;23;20029;-74
2021/08/19 10:46:41;;;;;;;26.48;16.75;;;17.80;99.90;;;;;;6115872;23;20022;-74
2021/08/19 10:49:27;;;;;;;25.15;17.50;;;17.80;99.90;;;;;;6114441;23;20413;-73
2021/08/19 10:51:53;;;;;;;30.17;18.77;;;17.80;99.90;;;;;;6117668;23;20328;-73
2021/08/19 10:54:34;;;;;;;28.75;16.75;;;17.80;99.90;;;;;;6118754;23;20096;-74
2021/08/19 10:57:24;;;;;;;28.98;16.75;;;17.80;99.90;;;;;;6117419;23;20030;-73
2021/08/19 11:00:07;;;;;;;18.55;12.02;;;17.80;99.90;;;;;;6117088;23;20022;-73
2021/08/19 11:02:54;;;;;;;17.38;11.68;;;17.90;99.90;;;;;;6087338;23;20030;-74
2021/08/19 11:05:26;;;;;;;13.60;11.07;;;17.90;99.90;;;;;;6110354;23;20029;-74
2021/08/19 11:07:54;;;;;;;17.55;11.90;;;18.00;99.90;;;;;;6093499;23;20454;-74
2021/08/19 11:10:40;;;;;;;18.02;11.98;;;18.00;99.90;;;;;;6118684;23;20021;-74
2021/08/19 11:13:09;;;;;;;18.55;11.35;;;18.10;99.90;;;;;;6094174;23;20018;-73
2021/08/19 11:15:48;;;;;;;19.02;11.93;;;18.10;99.90;;;;;;6116820;23;20018;-74
2021/08/19 11:18:32;;;;;;;22.23;11.80;;;18.10;99.90;;;;;;6115851;23;20093;-74
2021/08/19 11:20:59;;;;;;;18.13;12.43;;;18.20;99.90;;;;;;6115847;23;20258;-75
2021/08/19 11:23:33;;;;;;;17.63;11.45;;;18.20;99.90;;;;;;6120051;23;20459;-75
2021/08/19 11:26:20;;;;;;;22.45;13.07;;;18.20;99.90;;;;;;6118323;23;20486;-75
2021/08/19 11:28:48;;;;;;;17.88;11.93;;;18.30;99.90;;;;;;6091776;23;20100;-75
2021/08/19 11:31:24;;;;;;;16.33;11.55;;;18.30;99.90;;;;;;6118809;23;20021;-75
2021/08/19 11:34:17;;;;;;;14.80;10.05;;;18.30;99.90;;;;;;6117601;23;20447;-75
2021/08/19 11:36:43;;;;;;;15.25;11.25;;;18.30;99.90;;;;;;6116051;23;20386;-74
2021/08/19 11:39:15;;;;;;;17.58;10.65;;;18.30;99.90;;;;;;6115360;23;20485;-75
2021/08/19 11:41:53;;;;;;;15.07;10.10;;;18.30;99.90;;;;;;6092949;23;20018;-75
2021/08/19 11:44:19;;;;;;;8.60;6.22;;;18.20;99.90;;;;;;6123027;23;20030;-75
2021/08/19 11:46:48;;;;;;;7.82;5.47;;;18.10;99.90;;;;;;6113270;23;20364;-75
2021/08/19 11:49:15;;;;;;;6.45;4.97;;;18.00;99.90;;;;;;6119602;23;20093;-75
2021/08/19 11:51:43;;;;;;;7.53;5.97;;;18.00;99.90;;;;;;6123333;23;20022;-75
2021/08/19 11:54:13;;;;;;;7.82;6.30;;;17.90;99.90;;;;;;6116869;23;20017;-75
2021/08/19 11:56:42;;;;;;;9.90;6.88;;;17.90;99.90;;;;;;6115033;23;20026;-74
2021/08/19 11:59:11;;;;;;;6.88;6.18;;;17.90;99.90;;;;;;6120823;23;20108;-75
2021/08/19 12:01:40;;;;;;;6.78;5.93;;;17.80;99.90;;;;;;6115700;23;20028;-75
2021/08/19 12:04:08;;;;;;;7.63;6.60;;;17.80;99.90;;;;;;6114792;23;20048;-75
2021/08/19 12:06:34;;;;;;;7.32;6.55;;;17.70;99.90;;;;;;6113880;23;20089;-73
2021/08/19 12:09:09;;;;;;;11.52;8.05;;;17.60;99.90;;;;;;6120201;23;20046;-75
2021/08/19 12:11:43;;;;;;;8.63;6.80;;;17.60;99.90;;;;;;6119368;23;20423;-74
2021/08/19 12:14:14;;;;;;;8.45;6.97;;;17.60;99.90;;;;;;6117369;23;20018;-75
2021/08/19 12:16:50;;;;;;;7.55;6.75;;;17.40;99.90;;;;;;6123412;23;20040;-75
2021/08/19 12:19:19;;;;;;;8.25;6.53;;;17.50;99.90;;;;;;6122072;23;20093;-75
2021/08/19 12:21:48;;;;;;;8.80;6.82;;;17.50;99.90;;;;;;6118464;23;20025;-75
2021/08/19 12:24:24;;;;;;;7.75;6.70;;;17.50;99.90;;;;;;6123933;23;20022;-75
2021/08/19 12:27:15;;;;;;;8.73;6.18;;;17.50;99.90;;;;;;6116911;23;20025;-74
2021/08/19 12:29:48;;;;;;;9.15;6.72;;;17.50;99.90;;;;;;6116057;23;20026;-74
2021/08/19 12:32:28;;;;;;;10.98;8.40;;;17.60;99.90;;;;;;6120159;23;20017;-74
2021/08/19 12:35:07;;;;;;;;;;;17.60;99.90;;;;;;6118550;23;20199;-74
2021/08/19 12:37:35;;;;;;;10.15;7.90;;;17.60;99.90;;;;;;6145599;23;19917;-74
2021/08/19 12:40:15;;;;;;;14.05;8.10;;;17.60;99.90;;;;;;6118900;23;20380;-74
2021/08/19 12:42:44;;;;;;;12.43;7.88;;;17.60;99.90;;;;;;6118148;23;20809;-74
2021/08/19 12:45:11;;;;;;;13.10;8.52;;;17.50;99.90;;;;;;6120867;23;20475;-74
2021/08/19 12:47:42;;;;;;;10.10;7.15;;;17.50;99.90;;;;;;6087860;23;20030;-74
2021/08/19 12:50:10;;;;;;;13.02;8.90;;;17.50;99.90;;;;;;6120894;23;20014;-74
2021/08/19 12:52:36;;;;;;;11.13;7.32;;;17.50;99.90;;;;;;6119102;23;20463;-73
2021/08/19 12:55:02;;;;;;;11.02;6.50;;;17.50;99.90;;;;;;6091520;23;20017;-74
2021/08/19 12:57:29;;;;;;;10.30;7.70;;;17.60;99.90;;;;;;6122957;23;20271;-74
2021/08/19 12:59:54;;;;;;;8.77;7.05;;;17.50;99.90;;;;;;6120742;23;20372;-72
2021/08/19 13:02:20;;;;;;;9.70;7.38;;;17.50;99.90;;;;;;6118673;23;20029;-74
2021/08/19 13:04:46;;;;;;;9.32;6.75;;;17.50;99.90;;;;;;6068563;23;20560;-73
2021/08/19 13:07:13;;;;;;;13.63;9.02;;;17.50;99.90;;;;;;6118757;23;20022;-73
2021/08/19 13:09:42;;;;;;;10.45;7.20;;;17.60;99.90;;;;;;6120115;23;20151;-73
2021/08/19 13:12:10;;;;;;;16.35;9.30;;;17.60;99.90;;;;;;6065286;23;20147;-73